createdAt,value
2023-10-30T00:01:50.328Z,100034.41
2023-10-30T00:04:20.410Z,100039.00
2023-10-30T00:06:50.556Z,100030.50
2023-10-30T00:09:25.776Z,100044.25
2023-10-30T00:11:57.882Z,100036.69
2023-10-30T00:14:45.807Z,100047.19
2023-10-30T00:17:16.058Z,100065.53
2023-10-30T00:19:45.946Z,100068.38
2023-10-30T00:22:23.185Z,100075.50
2023-10-30T00:24:56.505Z,100076.56
2023-10-30T00:27:30.050Z,100084.69
2023-10-30T00:29:59.857Z,100082.72
2023-10-30T00:32:54.939Z,100079.81
2023-10-30T00:35:29.223Z,100088.81
2023-10-30T00:37:59.646Z,100068.78
2023-10-30T00:40:30.046Z,100072.44
2023-10-30T00:43:02.422Z,100072.34
2023-10-30T00:45:45.079Z,100079.19
2023-10-30T00:48:17.246Z,100071.19
2023-10-30T00:50:47.443Z,100074.03
2023-10-30T00:53:19.669Z,100062.91
2023-10-30T00:55:53.290Z,100054.41
2023-10-30T00:58:23.885Z,100064.16
2023-10-30T01:00:53.912Z,100056.28
2023-10-30T01:03:27.732Z,100062.66
2023-10-30T01:06:01.642Z,100056.56
2023-10-30T01:08:33.150Z,100065.59
2023-10-30T01:11:13.063Z,100058.53
2023-10-30T01:13:49.186Z,100053.47
2023-10-30T01:16:23.610Z,100052.53
2023-10-30T01:18:52.997Z,100049.09
2023-10-30T01:21:22.790Z,100055.09
2023-10-30T01:23:55.393Z,100050.84
2023-10-30T01:26:25.813Z,100056.00
2023-10-30T01:28:55.344Z,100051.53
2023-10-30T01:31:29.943Z,100037.47
2023-10-30T01:34:03.091Z,100036.53
2023-10-30T01:36:32.826Z,100025.22
2023-10-30T01:39:03.776Z,100020.16
2023-10-30T01:41:33.826Z,100021.16
2023-10-30T01:44:05.982Z,100009.97
2023-10-30T01:46:44.581Z,100002.72
2023-10-30T01:49:21.176Z,100007.16
2023-10-30T01:51:53.309Z,100011.53
2023-10-30T01:54:26.708Z,100007.56
2023-10-30T01:56:57.629Z,100006.59
2023-10-30T01:59:29.806Z,99999.56
2023-10-30T02:02:05.081Z,100003.03
2023-10-30T02:04:45.215Z,100001.38
2023-10-30T02:07:20.888Z,100000.72
2023-10-30T02:09:56.772Z,100006.78
2023-10-30T02:12:28.503Z,100014.97
2023-10-30T02:14:59.398Z,100007.31
2023-10-30T02:17:49.749Z,100013.91
2023-10-30T02:20:43.154Z,100023.59
2023-10-30T02:23:42.977Z,100020.31
2023-10-30T02:26:18.272Z,100024.63
2023-10-30T02:28:49.085Z,100029.31
2023-10-30T02:31:20.288Z,100020.06
2023-10-30T02:33:52.096Z,100019.22
2023-10-30T02:36:23.458Z,100014.06
2023-10-30T02:38:54.642Z,100014.06
2023-10-30T02:41:25.065Z,100003.59
2023-10-30T02:43:56.439Z,99988.81
2023-10-30T02:46:27.484Z,99980.94
2023-10-30T02:49:04.714Z,99971.31
2023-10-30T02:51:35.615Z,99974.13
2023-10-30T02:54:40.363Z,99984.13
2023-10-30T02:57:13.945Z,99987.22
2023-10-30T02:59:46.606Z,99994.16
2023-10-30T03:02:23.080Z,100000.44
2023-10-30T03:04:53.396Z,100006.06
2023-10-30T03:07:24.010Z,99998.59
2023-10-30T03:09:53.558Z,99990.56
2023-10-30T03:12:24.434Z,99987.94
2023-10-30T03:14:55.572Z,99987.94
2023-10-30T03:17:25.791Z,99980.91
2023-10-30T03:19:58.756Z,99963.44
2023-10-30T03:22:32.360Z,99975.47
2023-10-30T03:25:53.946Z,99968.66
2023-10-30T03:28:27.392Z,99962.88
2023-10-30T03:31:13.010Z,99969.84
2023-10-30T03:33:47.592Z,99973.00
2023-10-30T03:36:25.194Z,99988.63
2023-10-30T03:38:56.214Z,99983.78
2023-10-30T03:41:27.142Z,99981.03
2023-10-30T03:43:59.512Z,99979.38
2023-10-30T03:46:29.040Z,99976.97
2023-10-30T03:49:05.696Z,99968.06
2023-10-30T03:51:42.392Z,99949.19
2023-10-30T03:54:20.251Z,99951.81
2023-10-30T03:56:51.523Z,99948.53
2023-10-30T03:59:33.825Z,99944.25
2023-10-30T04:03:50.079Z,99938.94
2023-10-30T04:06:51.901Z,99920.88
2023-10-30T04:09:29.806Z,99922.97
2023-10-30T04:12:04.387Z,99927.25
2023-10-30T04:14:36.309Z,99921.38
2023-10-30T04:17:12.046Z,99927.63
2023-10-30T04:19:43.772Z,99924.28
2023-10-30T04:22:47.098Z,99933.44
2023-10-30T04:25:24.679Z,99940.81
2023-10-30T04:28:00.937Z,99926.22
2023-10-30T04:30:34.899Z,99923.69
2023-10-30T04:37:10.818Z,99927.81
2023-10-30T04:39:45.351Z,99916.06
2023-10-30T04:42:24.308Z,99917.59
2023-10-30T04:54:16.309Z,99921.38
2023-10-30T04:56:47.213Z,99922.41
2023-10-30T05:04:00.094Z,99898.84
2023-10-30T05:06:44.759Z,99906.78
2023-10-30T05:09:30.414Z,99883.09
2023-10-30T05:17:17.508Z,99874.44
2023-10-30T05:20:00.780Z,99901.47
2023-10-30T05:22:36.204Z,99900.81
2023-10-30T05:25:42.550Z,99882.50
2023-10-30T05:40:23.291Z,99866.06
2023-10-30T05:43:09.120Z,99873.16
2023-10-30T05:46:21.726Z,99873.06
2023-10-30T05:49:06.478Z,99869.94
2023-10-30T05:55:58.543Z,99845.59
2023-10-30T05:59:23.854Z,99854.50
2023-10-30T06:06:31.759Z,99846.63
2023-10-30T06:09:11.866Z,99829.78
2023-10-30T06:12:14.489Z,99829.19
2023-10-30T06:15:17.487Z,99816.50
2023-10-30T06:18:09.415Z,99818.16
2023-10-30T06:20:52.904Z,99825.47
2023-10-30T06:23:38.299Z,99825.38
2023-10-30T06:26:17.814Z,99809.78
2023-10-30T06:28:58.208Z,99823.91
2023-10-30T06:31:46.469Z,99822.31
2023-10-30T06:35:03.289Z,99833.16
2023-10-30T06:38:06.920Z,99827.34
2023-10-30T06:40:46.119Z,99824.06
2023-10-30T06:43:44.705Z,99814.63
2023-10-30T06:53:46.709Z,99818.66
2023-10-30T06:56:32.690Z,99808.69
2023-10-30T06:59:32.342Z,99809.41
2023-10-30T07:02:14.610Z,99800.81
2023-10-30T07:04:57.484Z,99801.69
2023-10-30T07:08:27.134Z,99796.16
2023-10-30T07:20:13.572Z,99758.34
2023-10-30T07:26:42.065Z,99746.84
2023-10-30T07:33:26.200Z,99741.91
2023-10-30T07:37:03.923Z,99738.25
2023-10-30T07:39:50.597Z,99728.38
2023-10-30T07:42:24.826Z,99731.00
2023-10-30T07:45:18.427Z,99736.22
2023-10-30T07:52:00.278Z,99715.31
2023-10-30T07:54:56.462Z,99707.38
2023-10-30T08:06:31.376Z,99681.91
2023-10-30T08:09:02.038Z,99690.91
2023-10-30T08:11:36.249Z,99683.31
2023-10-30T08:15:14.616Z,99684.72
2023-10-30T08:19:01.363Z,99680.31
2023-10-30T08:22:16.645Z,99666.91
2023-10-30T08:24:48.621Z,99657.50
2023-10-30T08:27:29.450Z,99651.53
2023-10-30T08:30:20.359Z,99653.13
2023-10-30T08:32:57.061Z,99646.09
2023-10-30T08:35:40.157Z,99626.34
2023-10-30T08:41:44.641Z,99620.16
2023-10-30T08:44:31.194Z,99610.91
2023-10-30T08:48:17.446Z,99616.50
2023-10-30T08:50:53.167Z,99621.09
2023-10-30T08:53:24.702Z,99617.09
2023-10-30T08:56:06.274Z,99620.72
2023-10-30T08:58:52.820Z,99618.13
2023-10-30T09:01:38.031Z,99637.34
2023-10-30T09:04:14.457Z,99644.44
2023-10-30T09:06:53.468Z,99639.63
2023-10-30T09:09:24.900Z,99626.19
2023-10-30T09:11:55.608Z,99622.84
2023-10-30T09:14:26.678Z,99620.22
2023-10-30T09:16:58.919Z,99616.78
2023-10-30T09:19:29.455Z,99630.75
2023-10-30T09:21:58.093Z,99626.69
2023-10-30T09:24:29.804Z,99641.63
2023-10-30T09:26:59.574Z,99633.22
2023-10-30T09:29:35.437Z,99633.88
2023-10-30T09:32:09.462Z,99631.44
2023-10-30T09:34:43.873Z,99636.47
2023-10-30T09:37:21.578Z,99624.44
2023-10-30T09:39:52.561Z,99616.63
2023-10-30T09:42:22.904Z,99602.25
2023-10-30T09:44:52.804Z,99617.63
2023-10-30T09:47:26.509Z,99615.03
2023-10-30T09:50:25.153Z,99609.50
2023-10-30T09:52:59.176Z,99594.50
2023-10-30T09:55:30.984Z,99602.34
2023-10-30T09:58:01.652Z,99590.59
2023-10-30T10:00:30.853Z,99587.25
2023-10-30T10:03:08.626Z,99574.28
2023-10-30T10:05:39.177Z,99573.19
2023-10-30T10:08:13.997Z,99569.53
2023-10-30T10:11:09.114Z,99567.66
2023-10-30T10:14:07.387Z,99557.31
2023-10-30T10:16:44.591Z,99549.75
2023-10-30T10:19:25.364Z,99550.63
2023-10-30T10:22:03.605Z,99551.81
2023-10-30T10:24:42.229Z,99552.59
2023-10-30T10:36:43.756Z,99547.19
2023-10-30T10:39:15.887Z,99560.44
2023-10-30T10:41:45.027Z,99548.41
2023-10-30T10:44:15.522Z,99539.84
2023-10-30T10:46:44.614Z,99532.19
2023-10-30T10:49:14.982Z,99528.84
2023-10-30T10:51:48.789Z,99522.78
2023-10-30T11:03:50.288Z,99515.25
2023-10-30T11:06:27.164Z,99514.31
2023-10-30T11:09:04.343Z,99517.84
2023-10-30T11:11:52.604Z,99514.59
2023-10-30T11:15:00.672Z,99519.63
2023-10-30T11:17:31.059Z,99520.94
2023-10-30T11:20:12.557Z,99516.63
2023-10-30T11:22:46.087Z,99503.69
2023-10-30T11:25:56.816Z,99520.34
2023-10-30T11:28:29.344Z,99515.50
2023-10-30T11:31:09.954Z,99518.22
2023-10-30T11:34:15.148Z,99523.44
2023-10-30T11:36:50.131Z,99518.50
2023-10-30T11:39:22.894Z,99500.53
2023-10-30T11:41:54.790Z,99509.09
2023-10-30T11:44:44.114Z,99510.50
2023-10-30T11:47:15.080Z,99515.25
2023-10-30T11:49:45.306Z,99511.16
2023-10-30T11:52:17.843Z,99506.75
2023-10-30T11:54:48.586Z,99506.97
2023-10-30T11:57:18.497Z,99506.97
2023-10-30T11:59:47.880Z,99494.75
2023-10-30T12:02:18.841Z,99489.63
2023-10-30T12:04:49.194Z,99494.84
2023-10-30T12:46:12.557Z,99492.78
2023-10-30T12:53:57.010Z,99486.16
2023-10-30T12:56:45.755Z,99491.47
2023-10-30T13:09:38.619Z,99475.34
2023-10-30T13:12:28.961Z,99458.03
2023-10-30T13:14:57.979Z,99464.91
2023-10-30T13:17:28.386Z,99469.94
2023-10-30T13:19:57.362Z,99473.19
2023-10-30T13:22:29.125Z,99470.47
2023-10-30T13:24:58.995Z,99464.03
2023-10-30T13:27:29.277Z,99470.00
2023-10-30T13:29:58.860Z,99464.59
2023-10-30T13:32:34.710Z,99466.91
2023-10-30T13:35:06.402Z,99476.31
2023-10-30T13:37:39.103Z,99466.59
2023-10-30T13:40:11.231Z,99475.06
2023-10-30T13:42:45.285Z,99465.38
2023-10-30T13:45:18.930Z,99460.81
2023-10-30T13:47:49.984Z,99462.47
2023-10-30T13:50:20.654Z,99454.44
2023-10-30T13:52:50.250Z,99442.31
2023-10-30T13:55:24.031Z,99441.91
2023-10-30T13:57:55.572Z,99439.09
2023-10-30T14:00:32.468Z,99441.50
2023-10-30T14:03:08.936Z,99435.25
2023-10-30T14:05:43.660Z,99423.72
2023-10-30T14:08:15.642Z,99422.59
2023-10-30T14:10:45.992Z,99418.31
2023-10-30T14:13:15.036Z,99416.44
2023-10-30T14:20:58.820Z,99404.31
2023-10-30T14:28:30.566Z,99405.41
2023-10-30T14:36:08.564Z,99385.66
2023-10-30T14:38:42.700Z,99390.78
2023-10-30T14:41:12.708Z,99380.22
2023-10-30T14:43:41.999Z,99375.63
2023-10-30T14:46:15.226Z,99381.34
2023-10-30T14:48:47.177Z,99377.69
2023-10-30T14:51:21.718Z,99373.94
2023-10-30T14:53:53.374Z,99361.50
2023-10-30T14:56:22.464Z,99346.41
2023-10-30T14:58:52.679Z,99345.38
2023-10-30T15:01:22.277Z,99336.34
2023-10-30T15:03:52.868Z,99340.34
2023-10-30T15:06:23.956Z,99326.19
2023-10-30T15:09:16.869Z,99316.13
2023-10-30T15:11:58.217Z,99325.41
2023-10-30T15:14:28.132Z,99317.38
2023-10-30T15:16:58.166Z,99307.41
2023-10-30T15:19:33.264Z,99310.50
2023-10-30T15:22:02.595Z,99299.84
2023-10-30T15:24:32.859Z,99297.69
2023-10-30T15:27:02.191Z,99286.88
2023-10-30T15:29:31.673Z,99292.56
2023-10-30T15:32:01.845Z,99281.84
2023-10-30T15:34:32.125Z,99284.25
2023-10-30T15:37:03.670Z,99279.50
2023-10-30T15:39:33.971Z,99286.06
2023-10-30T15:47:38.310Z,99271.25
2023-10-30T15:59:51.647Z,99256.03
2023-10-30T16:02:20.150Z,99247.59
2023-10-30T16:07:25.856Z,99230.72
2023-10-30T16:12:29.321Z,99237.00
2023-10-30T16:14:58.534Z,99218.84
2023-10-30T16:17:28.503Z,99224.22
2023-10-30T16:23:28.348Z,99219.59
2023-10-30T16:30:52.357Z,99224.91
2023-10-30T16:33:23.456Z,99222.50
2023-10-30T16:35:53.482Z,99224.22
2023-10-30T16:38:23.633Z,99215.34
2023-10-30T16:40:53.418Z,99217.06
2023-10-30T16:43:27.502Z,99211.16
2023-10-30T16:45:57.209Z,99211.09
2023-10-30T16:48:27.487Z,99197.06
2023-10-30T16:50:57.146Z,99193.88
2023-10-30T16:53:26.259Z,99188.38
2023-10-30T16:55:56.901Z,99187.97
2023-10-30T16:58:27.107Z,99196.16
2023-10-30T17:00:57.708Z,99193.84
2023-10-30T17:04:13.792Z,99213.66
2023-10-30T17:12:26.511Z,99232.22
2023-10-30T17:15:18.731Z,99246.97
2023-10-30T17:23:29.694Z,99265.28
2023-10-30T17:31:24.391Z,99285.25
2023-10-30T17:40:48.704Z,99281.34
2023-10-30T18:56:51.161Z,99328.75
2023-10-30T19:12:17.277Z,99363.19
2023-10-30T19:14:47.867Z,99365.47
2023-10-30T19:17:17.511Z,99370.94
2023-10-30T19:19:48.827Z,99368.53
2023-10-30T19:22:18.698Z,99371.53
2023-10-30T19:24:49.403Z,99387.38
2023-10-30T19:27:18.774Z,99393.69
2023-10-30T19:29:48.944Z,99410.59
2023-10-30T19:32:27.738Z,99398.66
2023-10-30T19:34:57.935Z,99406.88
2023-10-30T19:37:29.314Z,99395.28
2023-10-30T19:40:00.521Z,99398.72
2023-10-30T19:47:44.038Z,99418.88
2023-10-30T19:55:49.506Z,99425.38
2023-10-30T19:58:37.705Z,99419.25
2023-10-30T20:06:26.706Z,99430.06
2023-10-30T20:09:06.818Z,99434.28
2023-10-30T20:11:38.657Z,99435.69
2023-10-30T20:14:08.429Z,99426.16
2023-10-30T20:16:39.344Z,99431.72
2023-10-30T20:19:10.639Z,99433.22
2023-10-30T20:21:44.863Z,99472.91
2023-10-30T20:24:15.067Z,99475.66
2023-10-30T20:26:47.765Z,99502.00
2023-10-30T20:29:18.507Z,99504.22
2023-10-30T20:31:48.030Z,99521.06
2023-10-30T20:34:17.671Z,99535.31
2023-10-30T20:36:46.769Z,99528.84
2023-10-30T20:39:19.386Z,99545.16
2023-10-30T20:41:52.422Z,99545.59
2023-10-30T20:44:23.592Z,99561.69
2023-10-30T20:46:54.243Z,99570.13
2023-10-30T20:49:25.934Z,99579.78
2023-10-30T20:51:56.344Z,99592.63
2023-10-30T20:54:33.186Z,99595.84
2023-10-30T20:57:11.578Z,99630.94
2023-10-30T20:59:41.066Z,99636.78
2023-10-30T21:02:12.559Z,99643.41
2023-10-30T21:04:42.430Z,99639.31
2023-10-30T21:07:13.805Z,99625.72
2023-10-30T21:09:45.039Z,99628.63
2023-10-30T21:12:16.540Z,99641.22
2023-10-30T21:14:45.403Z,99665.00
2023-10-30T21:17:14.848Z,99665.22
2023-10-30T21:19:44.219Z,99668.66
2023-10-30T21:22:17.543Z,99669.72
2023-10-30T21:24:46.216Z,99672.13
2023-10-30T21:27:15.555Z,99688.81
2023-10-30T21:29:45.684Z,99699.63
2023-10-30T21:32:15.487Z,99709.34
2023-10-30T21:34:46.946Z,99712.81
2023-10-30T21:37:16.931Z,99717.91
2023-10-30T21:43:11.441Z,99705.63
2023-10-30T21:45:45.840Z,99716.59
2023-10-30T21:48:15.849Z,99720.44
2023-10-30T21:50:50.153Z,99717.09
2023-10-30T21:53:21.015Z,99720.34
2023-10-30T21:56:33.575Z,99715.56
2023-10-30T21:59:18.801Z,99724.56
2023-10-30T22:01:51.605Z,99740.41
2023-10-30T22:04:21.967Z,99747.66
